Breslau, Texas
Current Conditions -  °F | °C
As of 8:55 PM on Friday 21 Nov 2014 (Local Time) from K66R Reporting Station
Overcast Overcast  
Wind Chill: 67°   Ceiling: 3700
Heat Index: 67°   Visibility: 10mi
Dew Point: 64°   Wind: 6mph
Humidity: 90%   Direction: 120°ESE
Pressure: 30.1"   Gusts: NA
Location:  29.3984°N, 96.8256°W
Report Text: K66R 220255Z AUTO 12005KT 10SM OVC037 20/18 A3010 RMK AO2 T01950179
Loading
Personal Weather Stations






























Interactive Weather Map New forecast layout! Learn more

10-Day Weather Forecast

Advertisements
Track Severe Weather on mobile